• Join FlightAware (Why Join?)
  • Login
  • US Flag 
01:03AM EDT


 

Airport Tracker/Info


-or-


 

Live Flight TrackerFlight Track Log ✈ N27XP ✈ 22-Nov-2013 ✈ KRDU - KHUF

Flight Track Log - Related Links

Times and Time Zones

All times are in EST time to prevent confusion due to time zone crossing. See the N27XP flight status page for this flight to view local times or setup timezone preferences in your user account.

Time Position Orientation Groundspeed Altitude Reporting Facility
EST Latitude Longitude Course Direction KTS MPH feet Rate Location/Type
09:38PM 35.8542 -78.8083 242° Southwest 188 216 1,500  Level Washington Center
09:39PM 35.8231 -78.8814 242° Southwest 231 266 5,400 3,420 Climbing Washington Center
09:40PM 35.8494 -78.9747 289° West 252 290 9,600 2,820 Climbing Washington Center
09:41PM 35.8639 -79.0597 282° West 266 306 11,400 1,980 Climbing Washington Center
09:42PM 35.8461 -79.1614 258° West 281 323 13,700 1,980 Climbing Washington Center
09:44PM 35.8325 -79.3336 264° West 323 372 16,800 1,680 Climbing Atlanta Center
09:45PM 35.8242 -79.4417 265° West 323 372 18,300 1,620 Climbing Atlanta Center
09:46PM 35.8158 -79.5547 265° West 323 372 20,100 1,800 Climbing Atlanta Center
09:47PM 35.8158 -79.6700 270° West 322 371 22,000 1,800 Climbing Atlanta Center
09:48PM 35.8217 -79.7797 274° West 322 371 23,700 1,620 Climbing Atlanta Center
09:49PM 35.8314 -79.8842 277° West 322 371 25,300 1,500 Climbing Atlanta Center
09:51PM 35.8447 -80.0961 274° West 322 371 28,300 1,320 Climbing Atlanta Center
09:52PM 35.8525 -80.2111 275° West 322 371 29,400 1,200 Climbing Atlanta Center
09:53PM 35.8622 -80.3183 276° West 328 377 30,700 1,140 Climbing Atlanta Center
09:54PM 35.8717 -80.4281 276° West 328 377 31,700 960 Climbing Atlanta Center
09:55PM 35.8706 -80.5358 269° West 328 377 32,700 960 Climbing Atlanta Center
09:56PM 35.8758 -80.6456 273° West 328 377 33,700 960 Climbing Atlanta Center
09:57PM 35.8953 -80.7525 283° West 328 377 34,700 900 Climbing Atlanta Center
09:58PM 35.9478 -80.8403 306° West 309 356 35,600 780 Climbing Atlanta Center
09:59PM 36.0022 -80.9253 308° West 309 356 36,300 660 Climbing Atlanta Center
10:00PM 36.0564 -81.0158 307° West 320 368 37,000 660 Climbing Atlanta Center
10:01PM 36.1067 -81.1039 305° West 326 375 37,700 660 Climbing Atlanta Center
10:02PM 36.1586 -81.1919 306° West 326 375 38,400 660 Climbing Atlanta Center
10:03PM 36.2086 -81.2775 306° West 326 375 39,100 600 Climbing Atlanta Center
10:04PM 36.2542 -81.3558 306° West 326 375 39,700 420 Climbing Atlanta Center
10:05PM 36.3042 -81.4444 305° West 320 368 40,000 120 Climbing Atlanta Center
10:06PM 36.3581 -81.5328 307° West 320 368 40,000  Level Atlanta Center
10:07PM 36.4119 -81.6267 306° West 327 376 40,000  Level Atlanta Center
10:08PM 36.4681 -81.7256 305° West 338 389 40,000  Level Atlanta Center
10:09PM 36.5286 -81.8297 306° West 344 396 40,000  Level Atlanta Center
10:10PM 36.6178 -81.9819 306° West 354 407 40,000  Level Indianapolis Center
10:11PM 36.6753 -82.0828 305° West 357 411 40,000  Level Indianapolis Center
10:12PM 36.7336 -82.1822 306° West 356 410 40,000  Level Indianapolis Center
10:13PM 36.7917 -82.2831 306° West 358 412 40,000  Level Indianapolis Center
10:14PM 36.8486 -82.3842 305° West 357 411 40,000  Level Indianapolis Center
10:15PM 36.9058 -82.4850 305° West 356 410 40,000  Level Indianapolis Center
10:16PM 36.9717 -82.5997 306° West 352 405 40,000  Level Indianapolis Center
10:18PM 37.0283 -82.6994 305° West 353 406 40,000  Level Indianapolis Center
10:19PM 37.0839 -82.7994 305° West 354 407 40,000  Level Indianapolis Center
10:20PM 37.1406 -82.8992 306° West 355 409 40,000  Level Indianapolis Center
10:21PM 37.1953 -82.9994 304° West 352 405 40,000  Level Indianapolis Center
10:22PM 37.2508 -83.0994 305° West 349 402 40,000  Level Indianapolis Center
10:23PM 37.3061 -83.1975 305° West 348 400 40,000  Level Indianapolis Center
10:24PM 37.3700 -83.3147 304° West 349 402 40,000  Level Indianapolis Center
10:25PM 37.4253 -83.4147 305° West 348 400 40,000  Level Indianapolis Center
10:26PM 37.4803 -83.5147 305° West 348 400 40,000  Level Indianapolis Center
10:27PM 37.5361 -83.6153 305° West 350 403 40,000  Level Indianapolis Center
10:28PM 37.5919 -83.7158 305° West 349 402 40,000  Level Indianapolis Center
10:29PM 37.6461 -83.8167 304° West 350 403 40,000  Level Indianapolis Center
10:30PM 37.7014 -83.9186 304° West 350 403 40,000  Level Indianapolis Center
10:31PM 37.7569 -84.0206 305° West 351 404 40,000  Level Indianapolis Center
10:32PM 37.8119 -84.1222 304° West 352 405 40,000  Level Indianapolis Center
10:33PM 37.8669 -84.2256 304° West 352 405 40,000 -420 Level Indianapolis Center
10:34PM 37.9231 -84.3281 305° West 353 406 39,200 -900 Descending Indianapolis Center
10:35PM 37.9786 -84.4314 304° West 355 409 38,200 -1,140 Descending Indianapolis Center
10:36PM 38.0411 -84.5531 303° West 353 406 37,000 -1,140 Descending Indianapolis Center
10:37PM 38.0958 -84.6542 305° West 348 400 35,900 -1,080 Descending Indianapolis Center
10:38PM 38.1506 -84.7544 305° West 346 398 34,900 -1,080 Descending Indianapolis Center
10:39PM 38.2039 -84.8575 303° West 347 399 33,800 -1,140 Descending Indianapolis Center
10:40PM 38.2594 -84.9625 304° West 354 407 32,600 -1,200 Descending Indianapolis Center
10:41PM 38.3133 -85.0656 304° West 349 402 31,400 -1,260 Descending Indianapolis Center
10:42PM 38.3686 -85.1686 304° West 351 404 30,100 -1,320 Descending Indianapolis Center
10:43PM 38.4239 -85.2803 302° West 355 409 28,800 -1,380 Descending Indianapolis Center
10:44PM 38.4819 -85.3886 304° West 365 420 27,300 -1,440 Descending Indianapolis Center
10:45PM 38.5386 -85.4983 303° West 369 425 25,900 -1,440 Descending Indianapolis Center
10:46PM 38.5969 -85.6075 304° West 371 427 24,400 -1,440 Descending Indianapolis Center
10:47PM 38.6519 -85.7156 303° West 369 425 23,000 -1,620 Descending Indianapolis Center
10:48PM 38.7092 -85.8264 304° West 366 421 21,200 -1,740 Descending Indianapolis Center
10:49PM 38.7636 -85.9339 303° West 360 414 19,500 -1,740 Descending Indianapolis Center
10:50PM 38.8167 -86.0381 303° West 351 404 17,700 -1,620 Descending Indianapolis Center
10:51PM 38.8692 -86.1400 304° West 345 397 16,300 -1,740 Descending Indianapolis Center
10:52PM 38.9292 -86.2592 303° West 341 392 14,200 -1,920 Descending Indianapolis Center
10:53PM 38.9789 -86.3578 303° West 333 383 12,400 -1,620 Descending Indianapolis Center
10:54PM 39.0283 -86.4567 303° West 330 380 11,000 -840 Descending Indianapolis Center
10:55PM 39.0764 -86.5522 303° West 324 373 10,800 -600 Descending Indianapolis Center
10:56PM 39.1214 -86.6508 300° West 315 362 9,800 -1,200 Descending Indianapolis Center
10:57PM 39.1544 -86.7325 298° West 287 330 8,400 -1,620 Descending Indianapolis Center
10:58PM 39.1858 -86.8117 297° West 260 299 6,600 -1,680 Descending Indianapolis Center
10:59PM 39.2217 -86.8978 298° West 266 306 5,100 -1,200 Descending Indianapolis Center
11:00PM 39.2567 -86.9831 298° West 269 310 4,200 -900 Descending Indianapolis Center
11:01PM 39.2903 -87.0633 298° West 261 300 3,300 -840 Descending Indianapolis Center
11:02PM 39.3228 -87.1328 301° West 242 278 2,600 -360 Descending Indianapolis Center
11:03PM 39.3561 -87.1778 314° West 186 214 2,600 -240 Level Indianapolis Center
11:04PM 39.3911 -87.2203 317° Northwest 154 177 2,200 -420 Descending Indianapolis Center
11:05PM 39.4119 -87.2489 313° West 144 166 1,800 -420 Descending Indianapolis Center
11:07PM 39.4500 -87.3000 303° West  Level FlightAware Approximate
11:14PM 39.4515 -87.3076 303° West  Level Estimated
11:15PM 39.4500 -87.3000 303° West  Level FlightAware Approximate